sensor_id;sensor_type;location;lat;lon;timestamp;P1;durP1;ratioP1;P2;durP2;ratioP2
3000;SDS011;1510;51.072;6.678;2024-01-07T09:56:54;879.43;;;823.27;;
3000;SDS011;1510;51.072;6.678;2024-01-07T09:59:23;887.50;;;831.43;;
3000;SDS011;1510;51.072;6.678;2024-01-07T10:01:52;884.10;;;827.90;;
3000;SDS011;1510;51.072;6.678;2024-01-07T10:04:20;874.00;;;816.90;;
3000;SDS011;1510;51.072;6.678;2024-01-07T10:06:47;882.93;;;825.20;;
3000;SDS011;1510;51.072;6.678;2024-01-07T10:09:14;895.73;;;837.73;;
3000;SDS011;1510;51.072;6.678;2024-01-07T10:11:42;888.20;;;830.17;;
3000;SDS011;1510;51.072;6.678;2024-01-07T10:14:11;880.10;;;823.47;;
3000;SDS011;1510;51.072;6.678;2024-01-07T10:16:38;876.27;;;819.03;;
3000;SDS011;1510;51.072;6.678;2024-01-07T10:19:05;879.17;;;822.10;;
3000;SDS011;1510;51.072;6.678;2024-01-07T10:21:33;868.10;;;812.30;;
3000;SDS011;1510;51.072;6.678;2024-01-07T10:24:07;860.97;;;805.63;;
3000;SDS011;1510;51.072;6.678;2024-01-07T10:26:35;862.90;;;808.10;;
3000;SDS011;1510;51.072;6.678;2024-01-07T10:29:02;863.10;;;809.33;;
3000;SDS011;1510;51.072;6.678;2024-01-07T10:31:30;859.83;;;807.40;;
3000;SDS011;1510;51.072;6.678;2024-01-07T10:33:58;850.93;;;798.80;;
3000;SDS011;1510;51.072;6.678;2024-01-07T10:36:24;849.93;;;797.83;;
3000;SDS011;1510;51.072;6.678;2024-01-07T10:38:52;840.83;;;789.47;;
3000;SDS011;1510;51.072;6.678;2024-01-07T10:41:20;848.33;;;796.53;;
3000;SDS011;1510;51.072;6.678;2024-01-07T10:43:48;830.67;;;779.93;;
3000;SDS011;1510;51.072;6.678;2024-01-07T10:46:14;819.50;;;769.40;;
3000;SDS011;1510;51.072;6.678;2024-01-07T10:48:53;817.53;;;767.33;;
3000;SDS011;1510;51.072;6.678;2024-01-07T10:51:21;825.97;;;775.15;;
3000;SDS011;1510;51.072;6.678;2024-01-07T10:53:51;820.03;;;769.27;;
3000;SDS011;1510;51.072;6.678;2024-01-07T10:56:21;824.63;;;773.47;;
3000;SDS011;1510;51.072;6.678;2024-01-07T10:58:50;840.20;;;787.27;;
3000;SDS011;1510;51.072;6.678;2024-01-07T11:01:19;852.77;;;799.10;;
3000;SDS011;1510;51.072;6.678;2024-01-07T11:03:54;844.77;;;791.73;;
3000;SDS011;1510;51.072;6.678;2024-01-07T11:06:27;838.27;;;786.07;;
3000;SDS011;1510;51.072;6.678;2024-01-07T11:09:02;832.03;;;780.50;;
3000;SDS011;1510;51.072;6.678;2024-01-07T11:11:35;783.10;;;739.70;;
3000;SDS011;1510;51.072;6.678;2024-01-07T11:14:09;760.93;;;720.73;;
3000;SDS011;1510;51.072;6.678;2024-01-07T11:17:05;747.13;;;707.57;;
3000;SDS011;1510;51.072;6.678;2024-01-07T11:19:34;814.43;;;767.77;;
3000;SDS011;1510;51.072;6.678;2024-01-07T11:22:20;789.07;;;747.20;;
3000;SDS011;1510;51.072;6.678;2024-01-07T11:24:50;756.83;;;716.50;;
3000;SDS011;1510;51.072;6.678;2024-01-07T11:27:17;701.37;;;668.03;;
3000;SDS011;1510;51.072;6.678;2024-01-07T11:29:44;555.00;;;533.80;;
3000;SDS011;1510;51.072;6.678;2024-01-07T11:32:18;389.57;;;376.07;;
3000;SDS011;1510;51.072;6.678;2024-01-07T11:34:49;210.17;;;202.20;;
3000;SDS011;1510;51.072;6.678;2024-01-07T11:37:18;186.63;;;179.60;;
3000;SDS011;1510;51.072;6.678;2024-01-07T11:39:45;177.10;;;170.10;;
3000;SDS011;1510;51.072;6.678;2024-01-07T11:42:13;91.43;;;86.90;;
3000;SDS011;1510;51.072;6.678;2024-01-07T11:44:44;128.93;;;123.13;;
3000;SDS011;1510;51.072;6.678;2024-01-07T11:47:13;176.67;;;169.07;;
3000;SDS011;1510;51.072;6.678;2024-01-07T11:49:40;220.20;;;212.10;;
3000;SDS011;1510;51.072;6.678;2024-01-07T11:52:08;180.17;;;173.17;;
3000;SDS011;1510;51.072;6.678;2024-01-07T11:54:35;170.90;;;164.07;;
3000;SDS011;1510;51.072;6.678;2024-01-07T11:57:03;228.60;;;220.02;;
3000;SDS011;1510;51.072;6.678;2024-01-07T11:59:30;252.77;;;243.87;;
3000;SDS011;1510;51.072;6.678;2024-01-07T12:01:57;192.33;;;184.60;;
3000;SDS011;1510;51.072;6.678;2024-01-07T12:04:25;231.47;;;223.27;;
3000;SDS011;1510;51.072;6.678;2024-01-07T12:06:53;120.40;;;115.20;;
3000;SDS011;1510;51.072;6.678;2024-01-07T12:09:21;123.53;;;118.53;;
3000;SDS011;1510;51.072;6.678;2024-01-07T12:11:48;121.07;;;115.77;;
3000;SDS011;1510;51.072;6.678;2024-01-07T12:14:15;184.30;;;176.83;;
3000;SDS011;1510;51.072;6.678;2024-01-07T12:16:43;124.70;;;119.53;;
3000;SDS011;1510;51.072;6.678;2024-01-07T12:19:10;384.50;;;371.70;;
3000;SDS011;1510;51.072;6.678;2024-01-07T12:21:37;320.40;;;309.50;;
3000;SDS011;1510;51.072;6.678;2024-01-07T12:24:05;230.97;;;223.17;;
3000;SDS011;1510;51.072;6.678;2024-01-07T12:26:33;257.77;;;249.07;;
3000;SDS011;1510;51.072;6.678;2024-01-07T12:29:02;323.13;;;312.90;;
3000;SDS011;1510;51.072;6.678;2024-01-07T12:31:29;191.93;;;184.30;;
3000;SDS011;1510;51.072;6.678;2024-01-07T12:33:56;481.90;;;466.10;;
3000;SDS011;1510;51.072;6.678;2024-01-07T12:36:23;560.00;;;541.40;;
3000;SDS011;1510;51.072;6.678;2024-01-07T12:38:51;540.30;;;521.47;;
3000;SDS011;1510;51.072;6.678;2024-01-07T12:41:19;225.10;;;217.07;;
3000;SDS011;1510;51.072;6.678;2024-01-07T12:43:47;283.43;;;273.93;;
3000;SDS011;1510;51.072;6.678;2024-01-07T12:46:14;307.43;;;297.33;;
3000;SDS011;1510;51.072;6.678;2024-01-07T12:48:41;315.33;;;305.03;;
3000;SDS011;1510;51.072;6.678;2024-01-07T12:51:08;291.27;;;281.97;;
3000;SDS011;1510;51.072;6.678;2024-01-07T12:53:35;316.93;;;306.40;;
3000;SDS011;1510;51.072;6.678;2024-01-07T12:56:02;274.30;;;265.20;;
3000;SDS011;1510;51.072;6.678;2024-01-07T12:58:29;502.43;;;486.13;;
3000;SDS011;1510;51.072;6.678;2024-01-07T13:00:58;263.00;;;253.57;;
3000;SDS011;1510;51.072;6.678;2024-01-07T13:03:25;376.90;;;364.50;;
3000;SDS011;1510;51.072;6.678;2024-01-07T13:05:52;401.50;;;388.23;;
3000;SDS011;1510;51.072;6.678;2024-01-07T13:08:19;366.27;;;354.20;;
3000;SDS011;1510;51.072;6.678;2024-01-07T13:10:49;213.87;;;205.90;;
3000;SDS011;1510;51.072;6.678;2024-01-07T13:13:16;162.43;;;155.77;;
3000;SDS011;1510;51.072;6.678;2024-01-07T13:15:43;260.08;;;251.38;;
3000;SDS011;1510;51.072;6.678;2024-01-07T13:18:11;86.23;;;81.93;;
3000;SDS011;1510;51.072;6.678;2024-01-07T13:20:38;40.13;;;37.07;;
3000;SDS011;1510;51.072;6.678;2024-01-07T13:23:05;137.97;;;132.27;;
3000;SDS011;1510;51.072;6.678;2024-01-07T13:25:32;91.33;;;87.03;;
3000;SDS011;1510;51.072;6.678;2024-01-07T13:27:59;73.07;;;69.03;;
3000;SDS011;1510;51.072;6.678;2024-01-07T13:30:26;62.10;;;58.80;;
3000;SDS011;1510;51.072;6.678;2024-01-07T13:32:53;93.57;;;89.10;;
3000;SDS011;1510;51.072;6.678;2024-01-07T13:35:23;62.83;;;59.03;;
3000;SDS011;1510;51.072;6.678;2024-01-07T13:37:50;60.27;;;57.17;;
3000;SDS011;1510;51.072;6.678;2024-01-07T13:40:17;47.50;;;44.50;;
3000;SDS011;1510;51.072;6.678;2024-01-07T13:42:44;32.67;;;30.17;;
3000;SDS011;1510;51.072;6.678;2024-01-07T13:45:15;25.13;;;22.73;;
3000;SDS011;1510;51.072;6.678;2024-01-07T13:47:45;20.43;;;15.73;;
3000;SDS011;1510;51.072;6.678;2024-01-07T13:50:12;21.13;;;19.10;;
3000;SDS011;1510;51.072;6.678;2024-01-07T13:52:40;23.17;;;14.47;;
3000;SDS011;1510;51.072;6.678;2024-01-07T13:55:07;20.80;;;15.70;;
3000;SDS011;1510;51.072;6.678;2024-01-07T13:57:34;18.37;;;11.27;;
3000;SDS011;1510;51.072;6.678;2024-01-07T14:00:01;20.70;;;11.40;;
3000;SDS011;1510;51.072;6.678;2024-01-07T14:02:33;19.17;;;10.20;;
3000;SDS011;1510;51.072;6.678;2024-01-07T14:05:00;21.27;;;10.70;;
3000;SDS011;1510;51.072;6.678;2024-01-07T14:07:27;15.50;;;9.20;;
3000;SDS011;1510;51.072;6.678;2024-01-07T14:09:55;19.37;;;10.83;;
3000;SDS011;1510;51.072;6.678;2024-01-07T14:12:22;17.43;;;8.43;;
3000;SDS011;1510;51.072;6.678;2024-01-07T14:14:49;18.00;;;8.40;;
3000;SDS011;1510;51.072;6.678;2024-01-07T14:17:16;15.90;;;7.60;;
3000;SDS011;1510;51.072;6.678;2024-01-07T14:19:43;17.17;;;7.80;;
3000;SDS011;1510;51.072;6.678;2024-01-07T14:22:11;18.10;;;9.10;;
3000;SDS011;1510;51.072;6.678;2024-01-07T14:24:39;16.40;;;6.82;;
3000;SDS011;1510;51.072;6.678;2024-01-07T14:27:07;16.13;;;6.07;;
3000;SDS011;1510;51.072;6.678;2024-01-07T14:29:36;14.20;;;4.93;;
3000;SDS011;1510;51.072;6.678;2024-01-07T14:32:04;15.43;;;6.10;;
3000;SDS011;1510;51.072;6.678;2024-01-07T14:34:32;17.47;;;6.10;;
3000;SDS011;1510;51.072;6.678;2024-01-07T14:36:59;16.00;;;5.30;;
3000;SDS011;1510;51.072;6.678;2024-01-07T14:39:26;16.57;;;5.37;;
3000;SDS011;1510;51.072;6.678;2024-01-07T14:41:53;16.10;;;6.03;;
3000;SDS011;1510;51.072;6.678;2024-01-07T14:44:21;15.63;;;5.90;;
3000;SDS011;1510;51.072;6.678;2024-01-07T14:46:48;20.00;;;5.43;;
3000;SDS011;1510;51.072;6.678;2024-01-07T14:49:15;14.93;;;5.43;;
3000;SDS011;1510;51.072;6.678;2024-01-07T14:51:42;15.13;;;4.77;;
3000;SDS011;1510;51.072;6.678;2024-01-07T14:54:09;16.23;;;6.47;;
3000;SDS011;1510;51.072;6.678;2024-01-07T14:56:35;16.40;;;5.27;;
3000;SDS011;1510;51.072;6.678;2024-01-07T14:59:02;14.80;;;5.00;;
3000;SDS011;1510;51.072;6.678;2024-01-07T15:01:31;15.77;;;4.37;;
3000;SDS011;1510;51.072;6.678;2024-01-07T15:03:57;20.30;;;7.30;;
3000;SDS011;1510;51.072;6.678;2024-01-07T15:06:24;15.35;;;5.63;;
3000;SDS011;1510;51.072;6.678;2024-01-07T15:08:51;20.52;;;5.53;;
3000;SDS011;1510;51.072;6.678;2024-01-07T15:11:18;14.10;;;3.97;;
3000;SDS011;1510;51.072;6.678;2024-01-07T15:13:46;17.03;;;3.60;;
3000;SDS011;1510;51.072;6.678;2024-01-07T15:16:13;14.80;;;4.03;;
3000;SDS011;1510;51.072;6.678;2024-01-07T15:18:42;15.40;;;4.17;;
3000;SDS011;1510;51.072;6.678;2024-01-07T15:21:09;14.63;;;4.30;;
3000;SDS011;1510;51.072;6.678;2024-01-07T15:23:36;14.57;;;3.57;;
3000;SDS011;1510;51.072;6.678;2024-01-07T15:26:03;16.63;;;6.30;;
3000;SDS011;1510;51.072;6.678;2024-01-07T15:28:30;17.80;;;4.60;;
3000;SDS011;1510;51.072;6.678;2024-01-07T15:30:58;13.90;;;3.47;;
3000;SDS011;1510;51.072;6.678;2024-01-07T15:33:25;13.80;;;4.07;;
3000;SDS011;1510;51.072;6.678;2024-01-07T15:35:53;14.45;;;4.32;;
3000;SDS011;1510;51.072;6.678;2024-01-07T15:38:20;16.80;;;3.78;;
3000;SDS011;1510;51.072;6.678;2024-01-07T15:40:47;15.10;;;3.92;;
3000;SDS011;1510;51.072;6.678;2024-01-07T15:43:14;14.60;;;4.60;;
3000;SDS011;1510;51.072;6.678;2024-01-07T15:45:43;13.87;;;4.17;;
3000;SDS011;1510;51.072;6.678;2024-01-07T15:48:10;16.97;;;5.40;;
3000;SDS011;1510;51.072;6.678;2024-01-07T15:50:37;16.20;;;5.30;;
3000;SDS011;1510;51.072;6.678;2024-01-07T15:53:06;13.83;;;3.07;;
3000;SDS011;1510;51.072;6.678;2024-01-07T15:55:33;15.30;;;4.30;;
3000;SDS011;1510;51.072;6.678;2024-01-07T15:57:59;15.37;;;4.10;;
3000;SDS011;1510;51.072;6.678;2024-01-07T16:00:27;14.30;;;3.40;;
3000;SDS011;1510;51.072;6.678;2024-01-07T16:02:54;20.73;;;5.13;;
3000;SDS011;1510;51.072;6.678;2024-01-07T16:05:22;22.13;;;4.70;;
3000;SDS011;1510;51.072;6.678;2024-01-07T16:07:48;15.90;;;4.37;;
3000;SDS011;1510;51.072;6.678;2024-01-07T16:10:17;14.13;;;3.28;;
3000;SDS011;1510;51.072;6.678;2024-01-07T16:12:44;14.00;;;3.60;;
3000;SDS011;1510;51.072;6.678;2024-01-07T16:15:11;15.43;;;3.97;;
3000;SDS011;1510;51.072;6.678;2024-01-07T16:17:38;15.40;;;3.77;;
3000;SDS011;1510;51.072;6.678;2024-01-07T16:20:07;15.07;;;3.87;;
3000;SDS011;1510;51.072;6.678;2024-01-07T16:22:36;14.65;;;3.28;;
3000;SDS011;1510;51.072;6.678;2024-01-07T16:25:03;14.87;;;4.33;;
3000;SDS011;1510;51.072;6.678;2024-01-07T16:27:32;17.37;;;4.80;;
3000;SDS011;1510;51.072;6.678;2024-01-07T16:29:59;16.10;;;4.40;;
3000;SDS011;1510;51.072;6.678;2024-01-07T16:32:26;16.03;;;4.43;;
3000;SDS011;1510;51.072;6.678;2024-01-07T16:34:54;15.53;;;4.40;;
3000;SDS011;1510;51.072;6.678;2024-01-07T16:37:21;18.30;;;4.97;;
3000;SDS011;1510;51.072;6.678;2024-01-07T16:39:48;16.07;;;4.27;;
3000;SDS011;1510;51.072;6.678;2024-01-07T16:42:15;16.13;;;4.05;;
3000;SDS011;1510;51.072;6.678;2024-01-07T16:44:45;15.07;;;3.80;;
3000;SDS011;1510;51.072;6.678;2024-01-07T16:47:11;14.70;;;3.77;;
3000;SDS011;1510;51.072;6.678;2024-01-07T16:49:38;15.13;;;3.70;;
3000;SDS011;1510;51.072;6.678;2024-01-07T16:52:06;16.57;;;4.67;;
3000;SDS011;1510;51.072;6.678;2024-01-07T16:54:33;14.63;;;3.53;;
3000;SDS011;1510;51.072;6.678;2024-01-07T16:57:00;17.03;;;5.23;;
3000;SDS011;1510;51.072;6.678;2024-01-07T16:59:26;16.07;;;4.07;;
3000;SDS011;1510;51.072;6.678;2024-01-07T17:01:55;13.50;;;2.80;;
3000;SDS011;1510;51.072;6.678;2024-01-07T17:04:22;14.43;;;3.40;;
3000;SDS011;1510;51.072;6.678;2024-01-07T17:06:48;15.05;;;2.90;;
3000;SDS011;1510;51.072;6.678;2024-01-07T17:09:15;14.93;;;3.67;;
3000;SDS011;1510;51.072;6.678;2024-01-07T17:11:43;13.97;;;3.37;;
3000;SDS011;1510;51.072;6.678;2024-01-07T17:14:10;14.10;;;3.50;;
3000;SDS011;1510;51.072;6.678;2024-01-07T17:16:37;15.85;;;3.90;;
3000;SDS011;1510;51.072;6.678;2024-01-07T17:19:05;15.43;;;4.00;;
3000;SDS011;1510;51.072;6.678;2024-01-07T17:21:32;14.80;;;3.90;;
3000;SDS011;1510;51.072;6.678;2024-01-07T17:23:59;16.70;;;3.87;;
3000;SDS011;1510;51.072;6.678;2024-01-07T17:26:26;14.30;;;3.27;;
3000;SDS011;1510;51.072;6.678;2024-01-07T17:28:54;14.47;;;3.37;;
3000;SDS011;1510;51.072;6.678;2024-01-07T17:31:22;14.43;;;3.50;;
3000;SDS011;1510;51.072;6.678;2024-01-07T17:33:49;14.50;;;4.00;;
3000;SDS011;1510;51.072;6.678;2024-01-07T17:36:17;17.05;;;3.83;;
3000;SDS011;1510;51.072;6.678;2024-01-07T17:38:44;14.60;;;3.87;;
3000;SDS011;1510;51.072;6.678;2024-01-07T17:41:11;15.03;;;4.00;;
3000;SDS011;1510;51.072;6.678;2024-01-07T17:43:38;14.82;;;3.53;;
3000;SDS011;1510;51.072;6.678;2024-01-07T17:46:06;13.87;;;2.87;;
3000;SDS011;1510;51.072;6.678;2024-01-07T17:48:33;14.10;;;4.03;;
3000;SDS011;1510;51.072;6.678;2024-01-07T17:50:59;13.77;;;2.27;;
3000;SDS011;1510;51.072;6.678;2024-01-07T17:53:30;16.80;;;3.23;;
3000;SDS011;1510;51.072;6.678;2024-01-07T17:55:57;13.97;;;2.67;;
3000;SDS011;1510;51.072;6.678;2024-01-07T17:58:24;13.88;;;2.83;;
3000;SDS011;1510;51.072;6.678;2024-01-07T18:00:51;16.17;;;4.07;;
3000;SDS011;1510;51.072;6.678;2024-01-07T18:03:18;14.43;;;2.90;;
3000;SDS011;1510;51.072;6.678;2024-01-07T18:05:45;14.03;;;2.83;;
3000;SDS011;1510;51.072;6.678;2024-01-07T18:08:11;13.50;;;2.50;;
3000;SDS011;1510;51.072;6.678;2024-01-07T18:10:42;13.97;;;3.00;;
3000;SDS011;1510;51.072;6.678;2024-01-07T18:13:09;13.80;;;2.60;;
3000;SDS011;1510;51.072;6.678;2024-01-07T18:15:39;14.73;;;3.13;;
3000;SDS011;1510;51.072;6.678;2024-01-07T18:18:06;14.83;;;2.30;;
3000;SDS011;1510;51.072;6.678;2024-01-07T18:20:33;15.70;;;3.57;;
3000;SDS011;1510;51.072;6.678;2024-01-07T18:23:02;14.93;;;3.10;;
3000;SDS011;1510;51.072;6.678;2024-01-07T18:25:29;14.53;;;3.10;;
3000;SDS011;1510;51.072;6.678;2024-01-07T18:27:57;13.52;;;2.75;;
3000;SDS011;1510;51.072;6.678;2024-01-07T18:30:24;17.23;;;3.07;;
3000;SDS011;1510;51.072;6.678;2024-01-07T18:32:51;16.50;;;3.23;;
3000;SDS011;1510;51.072;6.678;2024-01-07T18:35:17;15.60;;;3.37;;
3000;SDS011;1510;51.072;6.678;2024-01-07T18:37:44;14.97;;;3.47;;
3000;SDS011;1510;51.072;6.678;2024-01-07T18:40:15;13.83;;;3.13;;
